Innsbruck, Austria
Current Conditions -  °F | °C
As of 8:20 AM on Wednesday 22 Oct 2014 (Local Time) from LOWI Reporting Station
Rain Showers Rain Showers  
Wind Chill: 41°   Ceiling: 6000
Heat Index: 41°   Visibility: 6mi
Dew Point: 36°   Wind: 3mph
Humidity: 81%   Direction: NA
Pressure: 29.94"   Gusts: NA
Location:  47.28°N, 11.41°E
Report Text: LOWI 220620Z VRB03KT 9999 -SHRA FEW015 SCT030 BKN060 05/02 Q1014 WS R26 NOSIG
Loading
Personal Weather Stations






























Interactive Weather Map
Tropical Storm Tracking
New forecast layout! Learn more

10-Day Weather Forecast

Advertisements
Track Severe Weather on mobile